Time;durP1;ratioP1;P1;durP2;ratioP2;P2;SDS_P1;SDS_P2;PMS_P1;PMS_P2;Temp;Humidity;BMP_temperature;BMP_pressure;BME280_temperature;BME280_humidity;BME280_pressure;Samples;Min_cycle;Max_cycle;Signal;HPM_P1;HPM_P2
2021/04/24 00:01:58;;;;;;;3.97;2.50;;;;;;;8.96;40.86;97930.81;5127031;27;20039;-74
2021/04/24 00:04:24;;;;;;;5.90;2.50;;;;;;;8.98;41.05;97924.41;5070800;28;20036;-74
2021/04/24 00:06:52;;;;;;;6.03;3.00;;;;;;;8.91;40.32;97915.91;5078327;27;20023;-74
2021/04/24 00:09:17;;;;;;;5.35;2.10;;;;;;;9.06;40.31;97917.34;5094654;27;20034;-74
2021/04/24 00:11:43;;;;;;;4.40;2.10;;;;;;;9.10;40.04;97927.09;5089292;28;20023;-74
2021/04/24 00:14:08;;;;;;;6.95;2.78;;;;;;;9.10;40.15;97921.09;5108089;28;20031;-74
2021/04/24 00:16:34;;;;;;;7.18;2.30;;;;;;;9.11;40.06;97927.88;5104930;27;20083;-74
2021/04/24 00:19:03;;;;;;;7.88;4.25;;;;;;;9.05;40.46;97920.94;5061123;28;20036;-74
2021/04/24 00:21:29;;;;;;;7.13;4.05;;;;;;;9.01;40.39;97920.59;5108984;28;20158;-74
2021/04/24 00:23:54;;;;;;;7.65;3.50;;;;;;;8.94;40.92;97915.44;5111137;27;20042;-74
2021/04/24 00:26:20;;;;;;;6.90;3.22;;;;;;;8.88;40.43;97915.53;5110211;28;20066;-74
2021/04/24 00:28:45;;;;;;;5.70;3.33;;;;;;;8.69;40.91;97920.69;5111298;28;20579;-74
2021/04/24 00:31:10;;;;;;;8.25;4.07;;;;;;;8.66;41.41;97918.53;5111193;28;20110;-74
2021/04/24 00:33:36;;;;;;;5.18;2.50;;;;;;;8.62;40.67;97910.38;5078175;28;20034;-74
2021/04/24 00:36:01;;;;;;;4.03;2.28;;;;;;;8.57;41.19;97920.59;5111508;28;20565;-74
2021/04/24 00:38:26;;;;;;;4.38;2.25;;;;;;;8.53;41.12;97913.44;5103472;28;20035;-75
2021/04/24 00:40:54;;;;;;;4.68;2.08;;;;;;;8.48;41.52;97914.06;5086458;28;20594;-75
2021/04/24 00:43:19;;;;;;;7.03;2.33;;;;;;;8.55;41.25;97907.03;5093486;28;20115;-74
2021/04/24 00:45:45;;;;;;;4.70;2.38;;;;;;;8.57;40.92;97906.84;5110600;28;20115;-74
2021/04/24 00:48:10;;;;;;;3.15;1.55;;;;;;;8.57;40.75;97899.03;5107812;28;20020;-75
2021/04/24 00:50:37;;;;;;;5.40;2.00;;;;;;;8.60;40.87;97904.59;5108253;28;20426;-74
2021/04/24 00:53:04;;;;;;;3.92;1.88;;;;;;;8.60;40.91;97896.00;5110373;28;20027;-75
2021/04/24 00:55:29;;;;;;;3.97;2.10;;;;;;;8.69;40.43;97907.72;5109736;28;20018;-74
2021/04/24 00:57:55;;;;;;;6.80;2.85;;;;;;;8.68;40.56;97906.13;5103763;28;20300;-74
2021/04/24 01:00:24;;;;;;;5.78;2.10;;;;;;;8.66;40.31;97900.34;5090602;28;20043;-74
2021/04/24 01:02:51;;;;;;;5.43;1.85;;;;;;;8.68;40.42;97895.72;5059520;28;20205;-74
2021/04/24 01:05:20;;;;;;;4.03;2.00;;;;;;;8.64;40.77;97899.78;5056591;28;20398;-74
2021/04/24 01:07:46;;;;;;;4.30;1.83;;;;;;;8.80;40.56;97909.59;5074960;28;20031;-74
2021/04/24 01:10:13;;;;;;;3.28;1.98;;;;;;;8.81;39.86;97898.22;5090664;28;20042;-74
2021/04/24 01:12:38;;;;;;;3.00;1.60;;;;;;;8.86;40.03;97884.59;5105248;28;20027;-74
2021/04/24 01:15:05;;;;;;;3.83;1.88;;;;;;;8.84;39.84;97891.00;5078738;28;20509;-74
2021/04/24 01:17:30;;;;;;;3.30;1.67;;;;;;;8.85;39.97;97883.00;5097696;28;20023;-74
2021/04/24 01:19:56;;;;;;;4.78;1.98;;;;;;;8.83;39.75;97886.81;5104060;28;20024;-75
2021/04/24 01:22:22;;;;;;;3.72;1.88;;;;;;;8.80;40.39;97873.25;5128336;28;20039;-75
2021/04/24 01:24:48;;;;;;;4.38;1.83;;;;;;;8.73;40.59;97888.09;5095088;28;20224;-75
2021/04/24 01:27:13;;;;;;;3.45;1.67;;;;;;;8.70;40.41;97872.16;5103746;28;20032;-74
2021/04/24 01:29:40;;;;;;;5.65;1.85;;;;;;;8.62;40.81;97878.44;5106491;28;20036;-74
2021/04/24 01:32:06;;;;;;;3.80;1.92;;;;;;;8.63;41.09;97877.41;5106620;28;20514;-74
2021/04/24 01:34:32;;;;;;;5.03;1.50;;;;;;;8.61;40.38;97874.25;5110564;28;20092;-75
2021/04/24 01:36:59;;;;;;;3.60;1.60;;;;;;;8.56;40.58;97872.28;5109894;28;20687;-75
2021/04/24 01:39:25;;;;;;;3.40;1.85;;;;;;;8.75;40.90;97880.88;5105908;28;20035;-75
2021/04/24 01:41:51;;;;;;;4.63;1.85;;;;;;;8.88;40.18;97869.59;5064248;27;20028;-75
2021/04/24 01:44:16;;;;;;;4.53;2.67;;;;;;;8.97;39.94;97870.09;5096177;27;20569;-75
2021/04/24 01:46:42;;;;;;;4.28;1.75;;;;;;;9.02;39.52;97870.22;5109957;28;20031;-75
2021/04/24 01:49:08;;;;;;;5.07;1.58;;;;;;;8.98;39.93;97877.66;5121006;27;20042;-75
2021/04/24 01:51:33;;;;;;;4.03;1.98;;;;;;;8.97;40.12;97876.06;5073801;27;20061;-75
2021/04/24 01:53:59;;;;;;;3.05;1.85;;;;;;;8.98;40.33;97875.06;5106476;27;20031;-75
2021/04/24 01:56:24;;;;;;;2.80;1.85;;;;;;;8.94;40.95;97879.09;5095716;27;20030;-75
2021/04/24 01:58:53;;;;;;;3.38;1.70;;;;;;;8.76;40.83;97877.28;5103258;28;20035;-75
2021/04/24 02:01:18;;;;;;;3.80;1.67;;;;;;;8.88;41.19;97879.19;5090864;27;20498;-75
2021/04/24 02:03:47;;;;;;;5.00;1.90;;;;;;;8.87;41.03;97873.19;5087611;27;20030;-75
2021/04/24 02:06:13;;;;;;;3.75;1.60;;;;;;;8.86;41.04;97870.78;5087162;27;20059;-75
2021/04/24 02:08:41;;;;;;;2.35;1.60;;;;;;;8.83;41.24;97866.84;5094118;27;20127;-75
2021/04/24 02:11:08;;;;;;;3.88;1.80;;;;;;;8.88;41.33;97858.41;5068833;27;20047;-75
2021/04/24 02:13:38;;;;;;;3.55;1.58;;;;;;;8.81;40.93;97859.25;5079078;27;20023;-75
2021/04/24 02:16:14;;;;;;;4.65;2.45;;;;;;;8.73;41.19;97866.53;5085878;27;20023;-75
2021/04/24 02:18:39;;;;;;;6.85;2.97;;;;;;;8.89;41.25;97860.75;5089716;27;20019;-75
2021/04/24 02:21:05;;;;;;;5.78;1.80;;;;;;;8.85;41.14;97853.66;5095551;27;20097;-75
2021/04/24 02:23:35;;;;;;;6.18;2.45;;;;;;;8.66;42.16;97856.22;5112919;27;20030;-75
2021/04/24 02:26:01;;;;;;;5.63;2.10;;;;;;;8.88;41.82;97867.00;5067592;27;20442;-75
2021/04/24 02:28:26;;;;;;;5.15;1.77;;;;;;;8.75;41.90;97857.50;5112695;27;20035;-75
2021/04/24 02:30:52;;;;;;;8.23;2.25;;;;;;;8.60;42.65;97851.88;5080833;27;20040;-75
2021/04/24 02:33:17;;;;;;;4.78;2.33;;;;;;;8.49;42.95;97850.00;5100564;27;20045;-75
2021/04/24 02:35:55;;;;;;;6.07;2.67;;;;;;;8.26;42.77;97851.38;5095275;27;20039;-75
2021/04/24 02:38:24;;;;;;;6.13;2.75;;;;;;;8.43;42.55;97851.63;5123842;27;20031;-75
2021/04/24 02:40:50;;;;;;;4.78;2.10;;;;;;;8.50;43.34;97861.94;5090352;27;20373;-75
2021/04/24 02:43:16;;;;;;;5.10;3.03;;;;;;;8.53;43.53;97861.53;5112002;27;20039;-75
2021/04/24 02:45:43;;;;;;;11.07;2.97;;;;;;;8.57;42.85;97857.50;5078134;27;20497;-75
2021/04/24 02:48:08;;;;;;;6.15;2.53;;;;;;;8.54;43.18;97856.13;5094853;27;20037;-75
2021/04/24 02:50:34;;;;;;;6.32;2.30;;;;;;;8.50;43.33;97856.75;5112277;27;20019;-75
2021/04/24 02:53:00;;;;;;;5.78;2.53;;;;;;;8.52;43.61;97854.78;5102542;28;20115;-75
2021/04/24 02:55:25;;;;;;;9.27;2.88;;;;;;;8.44;43.95;97850.63;5081342;28;20055;-75
2021/04/24 02:57:50;;;;;;;5.45;2.53;;;;;;;8.41;44.48;97849.25;5108906;27;20049;-75
2021/04/24 03:00:18;;;;;;;5.93;2.75;;;;;;;8.27;44.17;97847.75;5111121;27;20096;-74
2021/04/24 03:02:43;;;;;;;4.40;2.72;;;;;;;8.30;44.15;97847.31;5094867;27;20034;-75
2021/04/24 03:05:18;;;;;;;5.88;2.50;;;;;;;7.88;44.76;97858.22;5073655;27;20098;-75
2021/04/24 03:07:44;;;;;;;7.70;2.50;;;;;;;7.82;45.27;97856.47;5108597;27;20098;-75
2021/04/24 03:10:11;;;;;;;5.47;2.60;;;;;;;7.79;44.97;97864.66;5119933;27;20047;-75
2021/04/24 03:12:37;;;;;;;4.95;2.58;;;;;;;7.66;46.67;97868.13;5102606;27;20432;-74
2021/04/24 03:15:04;;;;;;;5.57;2.42;;;;;;;7.58;46.08;97870.16;5097082;28;20043;-75
2021/04/24 03:17:30;;;;;;;5.28;2.40;;;;;;;7.68;46.80;97866.13;5076253;27;20030;-75
2021/04/24 03:19:56;;;;;;;5.63;2.63;;;;;;;7.67;46.28;97867.09;5093777;27;20031;-75
2021/04/24 03:22:21;;;;;;;7.13;3.08;;;;;;;7.70;46.56;97860.72;5085483;28;20039;-75
2021/04/24 03:24:46;;;;;;;9.00;2.78;;;;;;;7.65;46.28;97870.91;5104319;28;20024;-75
2021/04/24 03:27:12;;;;;;;6.22;2.60;;;;;;;7.66;46.43;97868.13;5089488;27;20038;-75
2021/04/24 03:29:37;;;;;;;5.68;2.55;;;;;;;7.71;46.77;97864.91;5071563;28;20024;-75
2021/04/24 03:32:03;;;;;;;5.60;2.63;;;;;;;7.63;47.37;97859.97;5069613;28;20028;-75
2021/04/24 03:34:28;;;;;;;5.95;3.05;;;;;;;7.69;47.16;97872.09;5090644;27;20042;-75
2021/04/24 03:36:54;;;;;;;6.68;3.38;;;;;;;7.60;48.23;97866.34;5111803;27;20038;-75
2021/04/24 03:39:19;;;;;;;7.82;2.83;;;;;;;7.75;48.08;97867.88;5090882;27;20108;-75
2021/04/24 03:41:44;;;;;;;8.25;3.60;;;;;;;7.79;48.14;97866.44;5078952;28;20031;-75
2021/04/24 03:44:10;;;;;;;7.60;4.30;;;;;;;7.74;48.75;97874.84;5073615;28;20447;-75
2021/04/24 03:46:35;;;;;;;8.68;4.05;;;;;;;7.57;49.45;97871.16;5119457;27;20038;-75
2021/04/24 03:49:00;;;;;;;9.75;3.90;;;;;;;7.63;48.62;97867.75;5094006;27;20518;-75
2021/04/24 03:51:26;;;;;;;9.05;4.05;;;;;;;7.62;48.79;97868.75;5107605;27;20024;-74
2021/04/24 03:53:51;;;;;;;8.57;3.92;;;;;;;7.61;48.74;97875.72;5091090;27;20036;-75
2021/04/24 03:56:16;;;;;;;9.80;3.85;;;;;;;7.52;49.23;97876.94;5072999;27;20023;-75
2021/04/24 03:58:42;;;;;;;9.27;3.97;;;;;;;7.65;48.92;97871.69;5071664;27;20028;-75
2021/04/24 04:01:08;;;;;;;7.93;4.57;;;;;;;7.81;48.86;97872.22;5110152;27;20023;-75
2021/04/24 04:03:33;;;;;;;10.63;4.53;;;;;;;7.33;50.38;97873.44;5102664;27;20076;-74
2021/04/24 04:06:01;;;;;;;9.02;4.45;;;;;;;7.71;49.10;97882.25;5093293;27;20031;-75
2021/04/24 04:08:26;;;;;;;8.80;4.57;;;;;;;7.57;49.91;97874.53;5090562;27;20031;-75
2021/04/24 04:10:51;;;;;;;10.80;4.72;;;;;;;7.54;50.33;97879.34;5092636;27;20030;-75
2021/04/24 04:13:17;;;;;;;12.23;4.72;;;;;;;7.60;49.47;97878.53;5077029;27;20038;-75
2021/04/24 04:15:42;;;;;;;9.02;4.38;;;;;;;7.61;49.96;97886.09;5075660;27;20072;-74
2021/04/24 04:18:26;;;;;;;11.73;4.75;;;;;;;7.24;50.10;97888.44;5106717;28;20107;-75
2021/04/24 04:20:55;;;;;;;9.52;4.75;;;;;;;7.38;49.95;97878.03;5107264;28;20027;-75
2021/04/24 04:23:22;;;;;;;10.13;5.40;;;;;;;7.57;50.48;97884.13;5088631;27;20050;-75
2021/04/24 04:25:47;;;;;;;10.07;4.72;;;;;;;7.84;49.81;97885.56;5092072;27;20035;-75
2021/04/24 04:28:13;;;;;;;13.45;5.10;;;;;;;7.78;49.07;97888.19;5116510;28;20033;-75
2021/04/24 04:30:40;;;;;;;11.98;5.47;;;;;;;7.86;49.69;97887.94;5089290;28;20039;-75
2021/04/24 04:33:07;;;;;;;10.30;4.53;;;;;;;7.96;49.13;97892.69;5076699;28;20039;-75
2021/04/24 04:35:33;;;;;;;10.10;4.65;;;;;;;7.78;50.37;97891.59;5083343;28;20028;-75
2021/04/24 04:37:59;;;;;;;9.48;4.47;;;;;;;7.97;49.56;97884.69;5086584;28;20027;-75
2021/04/24 04:40:25;;;;;;;9.57;4.75;;;;;;;8.07;49.23;97899.75;5099963;28;20430;-75
2021/04/24 04:42:50;;;;;;;11.45;4.75;;;;;;;7.98;49.25;97894.03;5106933;28;20505;-75
2021/04/24 04:45:17;;;;;;;10.32;5.35;;;;;;;7.95;49.57;97897.06;5103210;28;20046;-75
2021/04/24 04:47:42;;;;;;;10.57;5.20;;;;;;;8.03;49.39;97894.22;5106841;28;20034;-75
2021/04/24 04:50:11;;;;;;;9.98;5.00;;;;;;;7.76;49.49;97898.78;5103411;28;20110;-75
2021/04/24 04:52:37;;;;;;;13.73;5.10;;;;;;;8.09;49.46;97899.56;5098218;28;20024;-75
2021/04/24 04:55:07;;;;;;;10.80;4.82;;;;;;;7.98;49.05;97906.22;5105391;28;20032;-75
2021/04/24 04:57:32;;;;;;;8.02;4.45;;;;;;;8.08;49.84;97898.78;5102696;28;20122;-75
2021/04/24 04:59:57;;;;;;;10.13;5.03;;;;;;;7.92;49.58;97899.25;5106309;28;20122;-75
2021/04/24 05:02:23;;;;;;;13.05;5.78;;;;;;;8.09;50.02;97891.78;5092354;28;20027;-74
2021/04/24 05:04:49;;;;;;;9.68;4.78;;;;;;;8.02;49.60;97897.81;5075197;28;20027;-74
2021/04/24 05:07:14;;;;;;;9.95;4.70;;;;;;;8.22;49.26;97887.28;5089376;28;20032;-75
2021/04/24 05:09:40;;;;;;;9.48;5.53;;;;;;;8.48;48.73;97892.53;5103320;28;20115;-75
2021/04/24 05:12:06;;;;;;;9.60;4.82;;;;;;;8.53;48.28;97887.47;5098546;28;20065;-75
2021/04/24 05:14:31;;;;;;;10.73;5.20;;;;;;;8.47;48.72;97888.34;5079839;28;20027;-75
2021/04/24 05:16:57;;;;;;;12.05;5.30;;;;;;;8.53;48.86;97885.69;5111191;27;20083;-75
2021/04/24 05:19:22;;;;;;;17.70;6.03;;;;;;;8.49;48.16;97891.53;5124468;27;20039;-75
2021/04/24 05:21:48;;;;;;;10.32;4.97;;;;;;;8.44;48.99;97890.34;5089789;27;20020;-75
2021/04/24 05:24:13;;;;;;;12.07;5.90;;;;;;;8.69;48.00;97891.31;5113753;27;20485;-75
2021/04/24 05:26:39;;;;;;;8.07;5.35;;;;;;;8.78;47.89;97885.66;5113743;27;20031;-75
2021/04/24 05:29:05;;;;;;;10.15;5.68;;;;;;;8.83;47.87;97886.81;5087117;27;20031;-75
2021/04/24 05:31:31;;;;;;;13.77;5.50;;;;;;;9.12;46.88;97880.13;5097235;27;20096;-75
2021/04/24 05:33:57;;;;;;;9.95;5.20;;;;;;;8.98;47.40;97892.47;5095737;27;20045;-75
2021/04/24 05:36:24;;;;;;;11.15;4.88;;;;;;;8.90;47.82;97895.34;5113817;27;20462;-75
2021/04/24 05:38:49;;;;;;;9.52;5.55;;;;;;;9.02;47.58;97891.00;5084468;28;20024;-75
2021/04/24 05:41:20;;;;;;;12.73;5.40;;;;;;;9.09;47.53;97890.94;5106447;27;20036;-75
2021/04/24 05:43:46;;;;;;;10.95;5.20;;;;;;;9.12;47.72;97895.72;5079919;27;20076;-75
2021/04/24 05:46:12;;;;;;;9.10;4.82;;;;;;;9.35;47.14;97895.03;5101707;28;20047;-75
2021/04/24 05:48:38;;;;;;;9.18;5.07;;;;;;;9.35;46.89;97895.03;5096674;27;20027;-75
2021/04/24 05:51:04;;;;;;;8.80;5.43;;;;;;;9.41;46.23;97891.56;5079184;28;20027;-74
2021/04/24 05:53:29;;;;;;;9.95;5.78;;;;;;;9.02;47.73;97901.41;5132229;27;20374;-75
2021/04/24 05:55:54;;;;;;;10.63;5.10;;;;;;;9.23;46.84;97887.19;5112387;27;20478;-75
2021/04/24 05:58:20;;;;;;;10.15;5.40;;;;;;;9.68;46.38;97894.63;5113593;27;20027;-75
2021/04/24 06:00:45;;;;;;;11.98;5.53;;;;;;;9.73;46.13;97899.16;5074447;28;20444;-75
2021/04/24 06:03:10;;;;;;;13.07;6.18;;;;;;;9.99;45.72;97890.22;5094443;27;20035;-75
2021/04/24 06:05:36;;;;;;;9.95;5.30;;;;;;;9.75;45.49;97897.94;5087426;27;20035;-75
2021/04/24 06:08:01;;;;;;;9.55;4.93;;;;;;;10.10;45.12;97899.06;5089598;27;20023;-75
2021/04/24 06:10:26;;;;;;;12.35;5.10;;;;;;;9.93;45.69;97902.28;5102564;28;20020;-77
2021/04/24 06:12:52;;;;;;;12.73;6.00;;;;;;;10.29;44.73;97904.97;5086098;28;20396;-75
2021/04/24 06:15:19;;;;;;;12.00;5.82;;;;;;;10.45;44.12;97906.16;5127617;27;20429;-76
2021/04/24 06:17:45;;;;;;;12.13;5.88;;;;;;;10.63;44.02;97900.84;5110722;27;20031;-75
2021/04/24 06:20:12;;;;;;;13.05;5.97;;;;;;;10.59;43.45;97899.72;5095476;27;20429;-75
2021/04/24 06:22:38;;;;;;;10.95;5.75;;;;;;;11.09;43.20;97897.63;5106141;27;20035;-75
2021/04/24 06:25:05;;;;;;;11.95;5.53;;;;;;;11.05;42.93;97903.31;5076294;27;20062;-75
2021/04/24 06:27:31;;;;;;;9.15;5.65;;;;;;;10.72;43.54;97905.72;5110298;27;20494;-75
2021/04/24 06:29:58;;;;;;;11.32;6.03;;;;;;;10.67;43.93;97904.56;5094456;27;20034;-77
2021/04/24 06:32:24;;;;;;;10.40;5.80;;;;;;;11.13;43.09;97899.56;5094723;27;20027;-77
2021/04/24 06:34:52;;;;;;;11.52;5.63;;;;;;;11.05;42.86;97902.50;5095992;27;20035;-75
2021/04/24 06:37:19;;;;;;;10.10;5.53;;;;;;;11.73;42.00;97902.78;5111337;27;20032;-75
2021/04/24 06:39:45;;;;;;;11.05;5.70;;;;;;;11.87;41.54;97898.84;5106432;27;20089;-75
2021/04/24 06:42:10;;;;;;;8.93;5.30;;;;;;;11.98;41.02;97899.88;5072841;27;20452;-75
2021/04/24 06:44:35;;;;;;;11.73;4.90;;;;;;;11.97;40.99;97891.22;5109732;27;20484;-74
2021/04/24 06:47:01;;;;;;;9.45;5.30;;;;;;;11.75;41.09;97900.72;5105918;27;20015;-77
2021/04/24 06:49:26;;;;;;;10.73;5.22;;;;;;;12.46;40.44;97900.38;5094783;27;20378;-75
2021/04/24 06:51:52;;;;;;;9.05;4.85;;;;;;;12.17;40.05;97898.63;5099393;28;20023;-74
2021/04/24 06:54:20;;;;;;;9.95;5.22;;;;;;;12.16;39.70;97897.03;5090254;28;20085;-77
2021/04/24 06:56:46;;;;;;;9.70;5.32;;;;;;;12.72;39.96;97893.69;5110345;27;20529;-75
2021/04/24 06:59:11;;;;;;;9.75;4.97;;;;;;;12.91;39.06;97895.00;5111907;27;20073;-75
2021/04/24 07:01:36;;;;;;;11.30;5.43;;;;;;;13.28;38.86;97901.44;5094459;27;20041;-75
2021/04/24 07:04:02;;;;;;;9.13;4.35;;;;;;;12.91;39.30;97897.59;5093421;27;20038;-75
2021/04/24 07:06:28;;;;;;;9.52;5.13;;;;;;;12.87;38.17;97900.97;5095323;27;20031;-75
2021/04/24 07:08:54;;;;;;;8.88;4.80;;;;;;;12.95;38.84;97900.53;5104408;28;20498;-75
2021/04/24 07:11:19;;;;;;;9.40;4.75;;;;;;;13.26;38.51;97900.91;5084218;27;20463;-75
2021/04/24 07:13:47;;;;;;;8.88;5.32;;;;;;;13.57;37.67;97896.06;5084055;27;20039;-75
2021/04/24 07:16:13;;;;;;;13.05;5.35;;;;;;;13.66;37.21;97895.38;5091807;27;20066;-77
2021/04/24 07:18:40;;;;;;;10.68;4.80;;;;;;;13.64;37.67;97900.06;5079252;28;20347;-75
2021/04/24 07:21:08;;;;;;;8.05;4.75;;;;;;;13.85;36.84;97905.53;5114304;27;20039;-75
2021/04/24 07:23:33;;;;;;;8.95;4.75;;;;;;;13.93;36.99;97905.06;5119829;27;20031;-75
2021/04/24 07:25:59;;;;;;;8.88;5.40;;;;;;;13.78;36.95;97900.47;5100467;27;20032;-74
2021/04/24 07:28:25;;;;;;;9.30;4.78;;;;;;;14.22;36.39;97899.53;5123538;27;20027;-75
2021/04/24 07:30:50;;;;;;;13.07;5.43;;;;;;;13.90;36.71;97900.34;5075298;27;20469;-74
2021/04/24 07:33:16;;;;;;;8.30;4.63;;;;;;;13.72;36.78;97890.97;5072493;27;20082;-75
2021/04/24 07:35:41;;;;;;;11.52;5.03;;;;;;;14.49;36.44;97894.25;5068577;27;20102;-75
2021/04/24 07:38:07;;;;;;;7.35;4.32;;;;;;;15.14;35.55;97889.66;5118195;27;20046;-75
2021/04/24 07:40:33;;;;;;;9.75;5.18;;;;;;;15.52;35.08;97894.78;5095085;27;20090;-75
2021/04/24 07:42:58;;;;;;;10.60;5.10;;;;;;;15.73;34.69;97895.63;5094405;27;20035;-76
2021/04/24 07:45:24;;;;;;;10.13;4.80;;;;;;;15.68;33.46;97899.03;5107092;27;20027;-75
2021/04/24 07:47:49;;;;;;;9.75;5.30;;;;;;;16.04;33.66;97888.63;5111493;27;20030;-75
2021/04/24 07:50:18;;;;;;;8.40;4.88;;;;;;;16.59;33.38;97890.69;5076211;27;20030;-75
2021/04/24 07:52:44;;;;;;;9.02;4.93;;;;;;;16.46;32.72;97897.28;5107987;27;20031;-75
2021/04/24 07:55:12;;;;;;;10.52;4.88;;;;;;;16.37;32.60;97886.50;5091656;27;20109;-76
2021/04/24 07:57:37;;;;;;;7.07;4.82;;;;;;;16.90;32.43;97895.91;5090311;27;20024;-75
2021/04/24 08:00:08;;;;;;;8.93;4.55;;;;;;;16.76;32.53;97895.63;5070224;27;20034;-75
2021/04/24 08:02:33;;;;;;;8.68;4.75;;;;;;;17.06;31.93;97886.13;5061167;27;20119;-76
2021/04/24 08:04:59;;;;;;;7.35;4.40;;;;;;;16.53;32.16;97895.16;5109966;27;20354;-75
2021/04/24 08:07:24;;;;;;;8.75;5.15;;;;;;;17.03;32.02;97888.25;5108741;28;20046;-75
2021/04/24 08:09:50;;;;;;;8.45;5.15;;;;;;;17.93;31.35;97891.75;5086570;27;20023;-75
2021/04/24 08:12:15;;;;;;;7.78;4.40;;;;;;;17.53;31.16;97893.56;5110742;27;20039;-75
2021/04/24 08:14:41;;;;;;;7.65;4.50;;;;;;;17.88;30.52;97898.91;5109378;27;20102;-75
2021/04/24 08:17:07;;;;;;;8.55;4.57;;;;;;;18.11;30.18;97890.31;5071712;28;20180;-75
2021/04/24 08:19:32;;;;;;;8.60;4.50;;;;;;;18.56;30.64;97902.59;5110606;27;20027;-76
2021/04/24 08:21:59;;;;;;;8.43;4.22;;;;;;;18.71;29.11;97897.16;5110914;28;20035;-75
2021/04/24 08:24:25;;;;;;;6.47;4.70;;;;;;;18.23;29.92;97894.44;5103332;27;20323;-75
2021/04/24 08:26:50;;;;;;;7.95;5.20;;;;;;;18.21;29.57;97893.94;5107111;28;20367;-76
2021/04/24 08:29:16;;;;;;;7.93;3.63;;;;;;;18.19;29.69;97894.19;5100734;28;20042;-76
2021/04/24 08:31:43;;;;;;;10.07;4.75;;;;;;;18.35;29.50;97894.84;5089663;28;20023;-76
2021/04/24 08:34:10;;;;;;;5.95;4.30;;;;;;;17.79;29.70;97891.56;5093064;28;20068;-76
2021/04/24 08:36:37;;;;;;;6.97;4.05;;;;;;;18.47;29.56;97887.38;5093780;28;20027;-76
2021/04/24 08:39:05;;;;;;;7.72;3.92;;;;;;;18.79;29.04;97890.50;5106774;28;20440;-75
2021/04/24 08:41:32;;;;;;;8.15;4.30;;;;;;;18.35;29.13;97886.94;5090269;28;20118;-76
2021/04/24 08:43:59;;;;;;;5.18;3.88;;;;;;;18.22;29.36;97882.34;5093066;28;20030;-76
2021/04/24 08:46:26;;;;;;;6.50;4.30;;;;;;;18.33;29.40;97881.97;5093763;28;20037;-75
2021/04/24 08:48:55;;;;;;;8.52;3.90;;;;;;;18.11;29.41;97871.88;5109858;28;20067;-76
2021/04/24 08:51:23;;;;;;;7.63;3.83;;;;;;;17.97;29.07;97876.19;5111540;27;20492;-76
2021/04/24 08:53:54;;;;;;;7.25;3.85;;;;;;;17.61;29.67;97881.66;5081621;27;20123;-75
2021/04/24 08:56:25;;;;;;;6.18;3.72;;;;;;;18.37;29.62;97871.66;5090981;28;20036;-76
2021/04/24 08:58:52;;;;;;;7.60;3.83;;;;;;;18.99;29.47;97879.75;5111569;27;20445;-76
2021/04/24 09:01:22;;;;;;;5.70;4.03;;;;;;;19.06;28.62;97874.13;5085102;28;20047;-76
2021/04/24 09:03:51;;;;;;;7.32;4.13;;;;;;;19.50;27.09;97874.91;5093471;28;20032;-75
2021/04/24 09:06:21;;;;;;;6.50;4.35;;;;;;;19.52;27.81;97870.91;5071447;28;20038;-76
2021/04/24 09:09:03;;;;;;;7.68;4.25;;;;;;;19.51;27.53;97866.69;5094372;27;20877;-76
2021/04/24 09:11:41;;;;;;;6.93;4.03;;;;;;;19.70;26.29;97869.31;5073610;27;20359;-76
2021/04/24 09:14:11;;;;;;;6.82;3.72;;;;;;;19.58;27.05;97869.75;5086227;27;20023;-75
2021/04/24 09:16:39;;;;;;;9.15;4.40;;;;;;;20.07;27.16;97869.63;5065648;28;20118;-76
2021/04/24 09:19:44;;;;;;;8.40;3.92;;;;;;;19.74;27.54;97866.91;5094267;27;20032;-76
2021/04/24 09:22:23;;;;;;;5.80;4.10;;;;;;;20.15;26.81;97866.28;5011920;28;20427;-76
2021/04/24 09:24:55;;;;;;;6.90;4.15;;;;;;;20.11;26.98;97868.72;4995474;28;20436;-75
2021/04/24 09:27:47;;;;;;;8.93;4.15;;;;;;;20.47;26.25;97867.34;4995861;28;20609;-75
2021/04/24 09:30:13;;;;;;;7.43;4.18;;;;;;;21.36;26.00;97854.81;4959949;28;20037;-75
2021/04/24 09:32:43;;;;;;;8.65;4.78;;;;;;;20.97;25.73;97862.22;5043472;28;20033;-76
2021/04/24 09:35:09;;;;;;;7.30;4.05;;;;;;;21.17;25.85;97855.72;5006421;28;20057;-75
2021/04/24 09:37:36;;;;;;;8.85;3.80;;;;;;;20.53;25.65;97850.31;4994028;28;20512;-76
2021/04/24 09:40:11;;;;;;;5.72;3.78;;;;;;;20.71;25.34;97841.53;5009517;28;20053;-75
2021/04/24 09:42:39;;;;;;;6.75;4.03;;;;;;;21.37;24.91;97840.47;5011769;28;20095;-75
2021/04/24 09:45:25;;;;;;;7.97;3.90;;;;;;;21.39;25.19;97838.34;5011223;28;20395;-75
2021/04/24 09:47:51;;;;;;;7.97;4.43;;;;;;;21.68;24.22;97849.34;5011521;28;20037;-75
2021/04/24 09:50:20;;;;;;;5.80;4.25;;;;;;;21.68;23.70;97846.69;4994103;28;20520;-76
2021/04/24 09:52:46;;;;;;;8.05;4.20;;;;;;;21.13;24.76;97841.53;5064944;27;20558;-76
2021/04/24 09:55:34;;;;;;;8.65;3.53;;;;;;;21.57;24.68;97839.28;5090332;27;20076;-76
2021/04/24 09:58:01;;;;;;;7.57;3.47;;;;;;;21.73;24.97;97827.25;5113483;27;20027;-76
2021/04/24 10:00:30;;;;;;;8.27;3.97;;;;;;;21.89;24.11;97836.38;5093262;27;20039;-75
2021/04/24 10:02:57;;;;;;;7.05;4.20;;;;;;;22.79;23.24;97830.16;5092529;27;20571;-75
2021/04/24 10:05:24;;;;;;;6.55;3.80;;;;;;;22.41;23.27;97824.53;5085789;28;20081;-75
2021/04/24 10:07:51;;;;;;;6.90;3.85;;;;;;;22.83;23.10;97822.34;5109605;28;20498;-75
2021/04/24 10:10:31;;;;;;;6.68;4.50;;;;;;;22.65;22.22;97824.16;5076084;27;20093;-76
2021/04/24 10:13:00;;;;;;;5.75;3.95;;;;;;;22.81;22.22;97821.88;5108642;28;20062;-76
2021/04/24 10:15:56;;;;;;;7.18;4.40;;;;;;;22.01;23.28;97821.81;5090766;27;20236;-75
2021/04/24 10:18:22;;;;;;;6.03;4.25;;;;;;;23.04;21.85;97803.94;5095798;27;20478;-75
2021/04/24 10:20:48;;;;;;;7.85;4.70;;;;;;;21.95;23.17;97818.50;5078954;27;20034;-76
2021/04/24 10:23:15;;;;;;;6.05;3.65;;;;;;;22.13;23.07;97816.72;5095775;27;20071;-76
2021/04/24 10:25:41;;;;;;;6.13;4.32;;;;;;;21.43;23.42;97818.88;5078913;27;20030;-75
2021/04/24 10:28:08;;;;;;;6.55;4.35;;;;;;;22.04;22.00;97806.06;5092003;27;20040;-75
2021/04/24 10:30:35;;;;;;;7.68;3.95;;;;;;;23.23;22.09;97800.25;5092578;27;20061;-75
2021/04/24 10:33:03;;;;;;;7.28;4.50;;;;;;;23.57;21.43;97810.09;5093713;27;20024;-76
2021/04/24 10:35:31;;;;;;;8.18;3.70;;;;;;;23.00;21.72;97808.31;5089907;27;20164;-76
2021/04/24 10:37:58;;;;;;;6.07;3.92;;;;;;;22.78;21.62;97807.34;5077927;27;20761;-76
2021/04/24 10:40:25;;;;;;;7.65;3.80;;;;;;;23.47;21.57;97808.53;5086155;27;20471;-75
2021/04/24 10:42:54;;;;;;;6.75;3.45;;;;;;;23.40;21.41;97802.91;5111010;27;20146;-76
2021/04/24 10:45:33;;;;;;;6.20;3.83;;;;;;;23.38;22.78;97803.22;5099811;27;20067;-75
2021/04/24 10:48:00;;;;;;;7.47;4.03;;;;;;;24.29;20.90;97805.91;5095810;27;20027;-75
2021/04/24 10:50:39;;;;;;;6.53;3.80;;;;;;;24.36;21.47;97792.09;5095213;27;20031;-75
2021/04/24 10:53:26;;;;;;;7.78;4.13;;;;;;;23.43;20.83;97782.91;5095454;27;20034;-76
2021/04/24 10:55:57;;;;;;;6.90;3.92;;;;;;;24.21;20.36;97792.63;5093122;27;20455;-75
2021/04/24 10:58:28;;;;;;;6.13;3.63;;;;;;;24.39;19.43;97780.06;5072700;27;20064;-76
2021/04/24 11:00:56;;;;;;;6.80;4.18;;;;;;;24.84;20.00;97788.28;5081986;27;20032;-75
2021/04/24 11:03:35;;;;;;;5.68;3.97;;;;;;;23.72;21.14;97777.72;5100478;27;20457;-76
2021/04/24 11:06:15;;;;;;;7.90;4.45;;;;;;;22.98;21.66;97776.00;5085024;27;20108;-76
2021/04/24 11:08:42;;;;;;;6.60;4.40;;;;;;;24.45;20.50;97762.78;5081094;27;20024;-76
2021/04/24 11:11:18;;;;;;;6.10;4.43;;;;;;;23.33;21.35;97770.72;5096262;28;20153;-76
2021/04/24 11:13:47;;;;;;;6.28;4.32;;;;;;;24.51;20.94;97764.19;5101451;27;20041;-76
2021/04/24 11:16:15;;;;;;;7.22;4.65;;;;;;;24.36;21.20;97762.06;5100891;27;20027;-76
2021/04/24 11:18:44;;;;;;;7.22;4.55;;;;;;;24.97;19.96;97753.75;5082469;28;20054;-76
2021/04/24 11:21:12;;;;;;;5.93;4.20;;;;;;;24.72;19.72;97761.56;5085203;27;20452;-76
2021/04/24 11:23:45;;;;;;;5.38;4.28;;;;;;;24.53;19.67;97756.66;5086536;28;20043;-76
2021/04/24 11:26:31;;;;;;;7.18;4.80;;;;;;;23.71;20.46;97746.13;5110786;27;20045;-76
2021/04/24 11:28:57;;;;;;;;;;;;;;;23.41;20.70;97751.34;5087589;27;20728;-76
2021/04/24 11:31:45;;;;;;;10.07;4.72;;;;;;;24.55;20.36;97754.47;5080435;27;19946;-76
2021/04/24 11:34:46;;;;;;;7.93;4.60;;;;;;;23.49;20.39;97747.91;5097654;27;20019;-76
2021/04/24 11:37:18;;;;;;;8.50;5.30;;;;;;;24.53;19.71;97748.66;5072793;27;20421;-75
2021/04/24 11:40:20;;;;;;;6.32;4.32;;;;;;;23.11;21.01;97742.44;5053363;28;20569;-75